sensor_id;sensor_type;location;lat;lon;timestamp;P1;durP1;ratioP1;P2;durP2;ratioP2
4508;SDS011;2267;48.816;9.230;2022-12-24T00:01:01;3.40;;;2.40;;
4508;SDS011;2267;48.816;9.230;2022-12-24T00:03:28;4.63;;;2.20;;
4508;SDS011;2267;48.816;9.230;2022-12-24T00:05:55;3.50;;;2.20;;
4508;SDS011;2267;48.816;9.230;2022-12-24T00:08:22;5.03;;;2.60;;
4508;SDS011;2267;48.816;9.230;2022-12-24T00:10:50;3.87;;;1.90;;
4508;SDS011;2267;48.816;9.230;2022-12-24T00:13:18;4.90;;;2.03;;
4508;SDS011;2267;48.816;9.230;2022-12-24T00:15:46;7.00;;;2.30;;
4508;SDS011;2267;48.816;9.230;2022-12-24T00:18:13;4.40;;;2.57;;
4508;SDS011;2267;48.816;9.230;2022-12-24T00:20:40;4.93;;;2.43;;
4508;SDS011;2267;48.816;9.230;2022-12-24T00:23:07;4.87;;;2.77;;
4508;SDS011;2267;48.816;9.230;2022-12-24T00:25:34;8.47;;;3.17;;
4508;SDS011;2267;48.816;9.230;2022-12-24T00:28:00;4.23;;;2.27;;
4508;SDS011;2267;48.816;9.230;2022-12-24T00:30:27;6.53;;;2.80;;
4508;SDS011;2267;48.816;9.230;2022-12-24T00:32:54;6.73;;;2.73;;
4508;SDS011;2267;48.816;9.230;2022-12-24T00:35:21;5.60;;;3.10;;
4508;SDS011;2267;48.816;9.230;2022-12-24T00:37:49;3.70;;;2.40;;
4508;SDS011;2267;48.816;9.230;2022-12-24T00:40:16;5.87;;;2.40;;
4508;SDS011;2267;48.816;9.230;2022-12-24T00:42:43;7.70;;;2.60;;
4508;SDS011;2267;48.816;9.230;2022-12-24T00:45:10;4.97;;;3.27;;
4508;SDS011;2267;48.816;9.230;2022-12-24T00:47:38;6.77;;;2.50;;
4508;SDS011;2267;48.816;9.230;2022-12-24T00:50:05;4.30;;;2.67;;
4508;SDS011;2267;48.816;9.230;2022-12-24T00:52:32;3.20;;;2.67;;
4508;SDS011;2267;48.816;9.230;2022-12-24T00:54:59;5.57;;;2.73;;
4508;SDS011;2267;48.816;9.230;2022-12-24T00:57:26;4.50;;;2.17;;
4508;SDS011;2267;48.816;9.230;2022-12-24T00:59:53;4.00;;;2.50;;
4508;SDS011;2267;48.816;9.230;2022-12-24T01:02:20;5.37;;;2.60;;
4508;SDS011;2267;48.816;9.230;2022-12-24T01:04:47;4.13;;;2.13;;
4508;SDS011;2267;48.816;9.230;2022-12-24T01:07:32;3.90;;;2.73;;
4508;SDS011;2267;48.816;9.230;2022-12-24T01:09:59;5.80;;;2.87;;
4508;SDS011;2267;48.816;9.230;2022-12-24T01:12:26;4.37;;;2.53;;
4508;SDS011;2267;48.816;9.230;2022-12-24T01:14:53;4.33;;;2.63;;
4508;SDS011;2267;48.816;9.230;2022-12-24T01:17:20;5.60;;;3.07;;
4508;SDS011;2267;48.816;9.230;2022-12-24T01:19:47;5.73;;;2.60;;
4508;SDS011;2267;48.816;9.230;2022-12-24T01:22:14;4.10;;;2.77;;
4508;SDS011;2267;48.816;9.230;2022-12-24T01:24:42;3.73;;;2.03;;
4508;SDS011;2267;48.816;9.230;2022-12-24T01:27:09;3.53;;;2.43;;
4508;SDS011;2267;48.816;9.230;2022-12-24T01:29:36;3.87;;;2.40;;
4508;SDS011;2267;48.816;9.230;2022-12-24T01:32:03;4.37;;;2.53;;
4508;SDS011;2267;48.816;9.230;2022-12-24T01:34:30;5.53;;;2.70;;
4508;SDS011;2267;48.816;9.230;2022-12-24T01:36:56;6.00;;;2.77;;
4508;SDS011;2267;48.816;9.230;2022-12-24T01:39:23;4.00;;;2.27;;
4508;SDS011;2267;48.816;9.230;2022-12-24T01:41:50;6.53;;;3.33;;
4508;SDS011;2267;48.816;9.230;2022-12-24T01:44:39;3.50;;;2.47;;
4508;SDS011;2267;48.816;9.230;2022-12-24T01:49:45;5.70;;;3.00;;
4508;SDS011;2267;48.816;9.230;2022-12-24T01:52:19;7.73;;;3.30;;
4508;SDS011;2267;48.816;9.230;2022-12-24T01:54:49;5.83;;;2.60;;
4508;SDS011;2267;48.816;9.230;2022-12-24T01:57:21;6.23;;;3.13;;
4508;SDS011;2267;48.816;9.230;2022-12-24T01:59:54;9.83;;;3.50;;
4508;SDS011;2267;48.816;9.230;2022-12-24T02:02:23;6.30;;;2.70;;
4508;SDS011;2267;48.816;9.230;2022-12-24T02:04:57;4.50;;;2.77;;
4508;SDS011;2267;48.816;9.230;2022-12-24T02:07:30;5.87;;;3.20;;
4508;SDS011;2267;48.816;9.230;2022-12-24T02:09:58;7.00;;;3.57;;
4508;SDS011;2267;48.816;9.230;2022-12-24T02:12:27;7.23;;;2.80;;
4508;SDS011;2267;48.816;9.230;2022-12-24T02:14:57;5.00;;;3.20;;
4508;SDS011;2267;48.816;9.230;2022-12-24T02:17:34;10.10;;;3.60;;
4508;SDS011;2267;48.816;9.230;2022-12-24T02:26:17;9.27;;;3.60;;
4508;SDS011;2267;48.816;9.230;2022-12-24T02:31:43;5.87;;;3.50;;
4508;SDS011;2267;48.816;9.230;2022-12-24T02:34:44;6.37;;;3.17;;
4508;SDS011;2267;48.816;9.230;2022-12-24T02:37:16;5.57;;;3.30;;
4508;SDS011;2267;48.816;9.230;2022-12-24T02:39:52;6.80;;;3.20;;
4508;SDS011;2267;48.816;9.230;2022-12-24T02:42:28;5.63;;;3.13;;
4508;SDS011;2267;48.816;9.230;2022-12-24T02:45:07;6.90;;;2.80;;
4508;SDS011;2267;48.816;9.230;2022-12-24T02:47:40;6.03;;;3.10;;
4508;SDS011;2267;48.816;9.230;2022-12-24T02:50:09;5.07;;;2.90;;
4508;SDS011;2267;48.816;9.230;2022-12-24T02:52:40;6.20;;;3.70;;
4508;SDS011;2267;48.816;9.230;2022-12-24T02:55:12;4.80;;;2.97;;
4508;SDS011;2267;48.816;9.230;2022-12-24T02:57:58;6.87;;;3.33;;
4508;SDS011;2267;48.816;9.230;2022-12-24T03:00:30;6.73;;;3.43;;
4508;SDS011;2267;48.816;9.230;2022-12-24T03:06:23;5.70;;;3.27;;
4508;SDS011;2267;48.816;9.230;2022-12-24T03:09:07;7.50;;;3.50;;
4508;SDS011;2267;48.816;9.230;2022-12-24T03:12:05;8.50;;;3.30;;
4508;SDS011;2267;48.816;9.230;2022-12-24T03:14:37;6.77;;;2.97;;
4508;SDS011;2267;48.816;9.230;2022-12-24T03:17:06;5.10;;;3.03;;
4508;SDS011;2267;48.816;9.230;2022-12-24T03:19:34;6.40;;;3.03;;
4508;SDS011;2267;48.816;9.230;2022-12-24T03:22:01;5.87;;;3.23;;
4508;SDS011;2267;48.816;9.230;2022-12-24T03:24:32;7.03;;;3.53;;
4508;SDS011;2267;48.816;9.230;2022-12-24T03:26:58;8.00;;;3.70;;
4508;SDS011;2267;48.816;9.230;2022-12-24T03:29:26;6.70;;;3.33;;
4508;SDS011;2267;48.816;9.230;2022-12-24T03:31:57;6.77;;;3.27;;
4508;SDS011;2267;48.816;9.230;2022-12-24T03:34:26;8.10;;;2.80;;
4508;SDS011;2267;48.816;9.230;2022-12-24T03:36:53;7.33;;;3.43;;
4508;SDS011;2267;48.816;9.230;2022-12-24T03:39:21;8.53;;;2.87;;
4508;SDS011;2267;48.816;9.230;2022-12-24T03:41:48;6.40;;;3.50;;
4508;SDS011;2267;48.816;9.230;2022-12-24T03:44:14;7.53;;;3.40;;
4508;SDS011;2267;48.816;9.230;2022-12-24T03:46:41;5.93;;;3.40;;
4508;SDS011;2267;48.816;9.230;2022-12-24T03:49:08;4.43;;;3.23;;
4508;SDS011;2267;48.816;9.230;2022-12-24T03:51:34;5.80;;;2.80;;
4508;SDS011;2267;48.816;9.230;2022-12-24T03:54:01;4.60;;;2.90;;
4508;SDS011;2267;48.816;9.230;2022-12-24T03:56:28;6.10;;;3.50;;
4508;SDS011;2267;48.816;9.230;2022-12-24T03:58:55;7.60;;;3.17;;
4508;SDS011;2267;48.816;9.230;2022-12-24T04:01:21;5.97;;;3.60;;
4508;SDS011;2267;48.816;9.230;2022-12-24T04:03:48;6.53;;;3.20;;
4508;SDS011;2267;48.816;9.230;2022-12-24T04:06:15;6.10;;;3.50;;
4508;SDS011;2267;48.816;9.230;2022-12-24T04:08:43;8.87;;;3.60;;
4508;SDS011;2267;48.816;9.230;2022-12-24T04:11:10;6.03;;;3.20;;
4508;SDS011;2267;48.816;9.230;2022-12-24T04:13:39;6.40;;;3.60;;
4508;SDS011;2267;48.816;9.230;2022-12-24T04:16:06;6.47;;;3.07;;
4508;SDS011;2267;48.816;9.230;2022-12-24T04:18:35;6.47;;;2.90;;
4508;SDS011;2267;48.816;9.230;2022-12-24T04:21:02;6.13;;;2.93;;
4508;SDS011;2267;48.816;9.230;2022-12-24T04:23:30;8.00;;;4.00;;
4508;SDS011;2267;48.816;9.230;2022-12-24T04:26:02;7.90;;;4.00;;
4508;SDS011;2267;48.816;9.230;2022-12-24T04:28:30;8.80;;;3.47;;
4508;SDS011;2267;48.816;9.230;2022-12-24T04:30:58;7.73;;;3.40;;
4508;SDS011;2267;48.816;9.230;2022-12-24T04:33:30;5.13;;;3.33;;
4508;SDS011;2267;48.816;9.230;2022-12-24T04:35:57;6.37;;;3.60;;
4508;SDS011;2267;48.816;9.230;2022-12-24T04:38:25;4.37;;;3.50;;
4508;SDS011;2267;48.816;9.230;2022-12-24T04:40:59;7.83;;;3.17;;
4508;SDS011;2267;48.816;9.230;2022-12-24T04:43:27;4.77;;;3.10;;
4508;SDS011;2267;48.816;9.230;2022-12-24T04:45:55;7.30;;;3.30;;
4508;SDS011;2267;48.816;9.230;2022-12-24T04:48:22;5.47;;;3.50;;
4508;SDS011;2267;48.816;9.230;2022-12-24T04:50:49;6.37;;;3.73;;
4508;SDS011;2267;48.816;9.230;2022-12-24T04:53:15;5.50;;;3.10;;
4508;SDS011;2267;48.816;9.230;2022-12-24T04:55:43;11.80;;;3.50;;
4508;SDS011;2267;48.816;9.230;2022-12-24T04:58:11;8.03;;;3.30;;
4508;SDS011;2267;48.816;9.230;2022-12-24T05:00:38;6.53;;;4.20;;
4508;SDS011;2267;48.816;9.230;2022-12-24T05:03:06;7.07;;;3.47;;
4508;SDS011;2267;48.816;9.230;2022-12-24T05:05:32;4.30;;;3.40;;
4508;SDS011;2267;48.816;9.230;2022-12-24T05:07:59;5.83;;;3.20;;
4508;SDS011;2267;48.816;9.230;2022-12-24T05:10:26;6.43;;;3.10;;
4508;SDS011;2267;48.816;9.230;2022-12-24T05:12:53;6.33;;;3.07;;
4508;SDS011;2267;48.816;9.230;2022-12-24T05:15:19;6.57;;;3.10;;
4508;SDS011;2267;48.816;9.230;2022-12-24T05:17:46;6.97;;;3.50;;
4508;SDS011;2267;48.816;9.230;2022-12-24T05:20:13;7.83;;;3.60;;
4508;SDS011;2267;48.816;9.230;2022-12-24T05:22:40;5.57;;;3.00;;
4508;SDS011;2267;48.816;9.230;2022-12-24T05:25:31;6.97;;;3.20;;
4508;SDS011;2267;48.816;9.230;2022-12-24T05:28:20;8.90;;;3.27;;
4508;SDS011;2267;48.816;9.230;2022-12-24T05:30:46;7.27;;;4.00;;
4508;SDS011;2267;48.816;9.230;2022-12-24T05:33:13;8.23;;;3.90;;
4508;SDS011;2267;48.816;9.230;2022-12-24T05:35:40;5.30;;;3.17;;
4508;SDS011;2267;48.816;9.230;2022-12-24T05:38:07;5.07;;;3.20;;
4508;SDS011;2267;48.816;9.230;2022-12-24T05:40:33;3.77;;;2.90;;
4508;SDS011;2267;48.816;9.230;2022-12-24T05:43:00;6.40;;;3.27;;
4508;SDS011;2267;48.816;9.230;2022-12-24T05:45:27;6.17;;;3.07;;
4508;SDS011;2267;48.816;9.230;2022-12-24T05:47:54;7.10;;;3.40;;
4508;SDS011;2267;48.816;9.230;2022-12-24T05:50:20;6.40;;;3.43;;
4508;SDS011;2267;48.816;9.230;2022-12-24T05:52:47;6.53;;;3.37;;
4508;SDS011;2267;48.816;9.230;2022-12-24T05:55:14;6.53;;;3.10;;
4508;SDS011;2267;48.816;9.230;2022-12-24T05:57:40;9.47;;;3.93;;
4508;SDS011;2267;48.816;9.230;2022-12-24T06:00:08;5.77;;;3.17;;
4508;SDS011;2267;48.816;9.230;2022-12-24T06:02:35;6.13;;;3.27;;
4508;SDS011;2267;48.816;9.230;2022-12-24T06:05:02;6.50;;;2.93;;
4508;SDS011;2267;48.816;9.230;2022-12-24T06:07:29;6.27;;;3.30;;
4508;SDS011;2267;48.816;9.230;2022-12-24T06:09:56;4.33;;;2.93;;
4508;SDS011;2267;48.816;9.230;2022-12-24T06:12:23;8.80;;;3.07;;
4508;SDS011;2267;48.816;9.230;2022-12-24T06:14:49;10.33;;;3.40;;
4508;SDS011;2267;48.816;9.230;2022-12-24T06:17:16;10.20;;;3.40;;
4508;SDS011;2267;48.816;9.230;2022-12-24T06:19:43;6.33;;;3.13;;
4508;SDS011;2267;48.816;9.230;2022-12-24T06:22:10;11.43;;;3.17;;
4508;SDS011;2267;48.816;9.230;2022-12-24T06:24:36;6.90;;;3.40;;
4508;SDS011;2267;48.816;9.230;2022-12-24T06:27:03;8.70;;;3.17;;
4508;SDS011;2267;48.816;9.230;2022-12-24T06:29:30;7.77;;;3.17;;
4508;SDS011;2267;48.816;9.230;2022-12-24T06:31:56;5.33;;;3.37;;
4508;SDS011;2267;48.816;9.230;2022-12-24T06:34:23;8.07;;;3.63;;
4508;SDS011;2267;48.816;9.230;2022-12-24T06:36:50;6.07;;;3.47;;
4508;SDS011;2267;48.816;9.230;2022-12-24T06:39:17;7.90;;;3.00;;
4508;SDS011;2267;48.816;9.230;2022-12-24T06:41:44;10.83;;;3.43;;
4508;SDS011;2267;48.816;9.230;2022-12-24T06:44:10;7.57;;;3.40;;
4508;SDS011;2267;48.816;9.230;2022-12-24T06:46:37;6.33;;;3.80;;
4508;SDS011;2267;48.816;9.230;2022-12-24T06:49:04;5.90;;;3.90;;
4508;SDS011;2267;48.816;9.230;2022-12-24T06:51:31;5.70;;;3.47;;
4508;SDS011;2267;48.816;9.230;2022-12-24T06:53:57;6.20;;;3.83;;
4508;SDS011;2267;48.816;9.230;2022-12-24T06:56:24;3.90;;;2.53;;
4508;SDS011;2267;48.816;9.230;2022-12-24T06:58:51;6.93;;;3.03;;
4508;SDS011;2267;48.816;9.230;2022-12-24T07:01:18;6.23;;;3.30;;
4508;SDS011;2267;48.816;9.230;2022-12-24T07:03:46;9.27;;;3.23;;
4508;SDS011;2267;48.816;9.230;2022-12-24T07:06:24;7.53;;;3.20;;
4508;SDS011;2267;48.816;9.230;2022-12-24T07:08:53;5.73;;;3.03;;
4508;SDS011;2267;48.816;9.230;2022-12-24T07:11:20;6.80;;;3.47;;
4508;SDS011;2267;48.816;9.230;2022-12-24T07:13:48;4.57;;;3.00;;
4508;SDS011;2267;48.816;9.230;2022-12-24T07:16:14;9.27;;;3.57;;
4508;SDS011;2267;48.816;9.230;2022-12-24T07:18:42;5.03;;;3.30;;
4508;SDS011;2267;48.816;9.230;2022-12-24T07:21:10;6.17;;;3.60;;
4508;SDS011;2267;48.816;9.230;2022-12-24T07:23:36;6.33;;;3.50;;
4508;SDS011;2267;48.816;9.230;2022-12-24T07:26:04;6.70;;;3.70;;
4508;SDS011;2267;48.816;9.230;2022-12-24T07:28:31;5.43;;;2.83;;
4508;SDS011;2267;48.816;9.230;2022-12-24T07:30:59;5.60;;;3.60;;
4508;SDS011;2267;48.816;9.230;2022-12-24T07:33:26;6.20;;;3.40;;
4508;SDS011;2267;48.816;9.230;2022-12-24T07:35:57;6.07;;;3.50;;
4508;SDS011;2267;48.816;9.230;2022-12-24T07:38:28;6.80;;;4.10;;
4508;SDS011;2267;48.816;9.230;2022-12-24T07:40:56;10.53;;;4.10;;
4508;SDS011;2267;48.816;9.230;2022-12-24T07:43:23;8.17;;;4.00;;
4508;SDS011;2267;48.816;9.230;2022-12-24T07:45:53;7.03;;;4.60;;
4508;SDS011;2267;48.816;9.230;2022-12-24T07:48:24;6.90;;;4.07;;
4508;SDS011;2267;48.816;9.230;2022-12-24T07:50:52;5.23;;;4.13;;
4508;SDS011;2267;48.816;9.230;2022-12-24T07:53:19;5.43;;;3.73;;
4508;SDS011;2267;48.816;9.230;2022-12-24T07:55:46;5.37;;;3.87;;
4508;SDS011;2267;48.816;9.230;2022-12-24T07:58:13;5.80;;;3.90;;
4508;SDS011;2267;48.816;9.230;2022-12-24T08:00:40;5.10;;;4.10;;
4508;SDS011;2267;48.816;9.230;2022-12-24T08:03:08;5.50;;;3.77;;
4508;SDS011;2267;48.816;9.230;2022-12-24T08:05:43;7.63;;;4.53;;
4508;SDS011;2267;48.816;9.230;2022-12-24T08:08:11;10.57;;;4.63;;
4508;SDS011;2267;48.816;9.230;2022-12-24T08:10:38;6.50;;;4.50;;
4508;SDS011;2267;48.816;9.230;2022-12-24T08:13:06;6.80;;;4.43;;
4508;SDS011;2267;48.816;9.230;2022-12-24T08:15:33;6.33;;;4.30;;
4508;SDS011;2267;48.816;9.230;2022-12-24T08:18:00;9.17;;;5.30;;
4508;SDS011;2267;48.816;9.230;2022-12-24T08:20:27;5.73;;;4.77;;
4508;SDS011;2267;48.816;9.230;2022-12-24T08:22:53;6.90;;;4.73;;
4508;SDS011;2267;48.816;9.230;2022-12-24T08:25:20;8.93;;;5.20;;
4508;SDS011;2267;48.816;9.230;2022-12-24T08:27:47;8.23;;;4.87;;
4508;SDS011;2267;48.816;9.230;2022-12-24T08:30:14;7.73;;;4.93;;
4508;SDS011;2267;48.816;9.230;2022-12-24T08:32:46;5.27;;;4.03;;
4508;SDS011;2267;48.816;9.230;2022-12-24T08:35:13;8.20;;;4.97;;
4508;SDS011;2267;48.816;9.230;2022-12-24T08:37:40;9.63;;;5.17;;
4508;SDS011;2267;48.816;9.230;2022-12-24T08:40:07;8.67;;;5.40;;
4508;SDS011;2267;48.816;9.230;2022-12-24T08:42:34;7.17;;;4.93;;
4508;SDS011;2267;48.816;9.230;2022-12-24T08:45:01;7.53;;;4.43;;
4508;SDS011;2267;48.816;9.230;2022-12-24T08:47:28;8.77;;;4.93;;
4508;SDS011;2267;48.816;9.230;2022-12-24T08:49:55;6.23;;;4.13;;
4508;SDS011;2267;48.816;9.230;2022-12-24T08:52:21;7.57;;;5.13;;
4508;SDS011;2267;48.816;9.230;2022-12-24T08:54:48;7.77;;;5.03;;
4508;SDS011;2267;48.816;9.230;2022-12-24T08:57:15;11.30;;;6.17;;
4508;SDS011;2267;48.816;9.230;2022-12-24T08:59:42;6.13;;;4.60;;
4508;SDS011;2267;48.816;9.230;2022-12-24T09:02:09;10.20;;;6.30;;
4508;SDS011;2267;48.816;9.230;2022-12-24T09:04:39;7.67;;;6.23;;
4508;SDS011;2267;48.816;9.230;2022-12-24T09:07:06;6.53;;;4.67;;
4508;SDS011;2267;48.816;9.230;2022-12-24T09:09:33;10.33;;;4.90;;
4508;SDS011;2267;48.816;9.230;2022-12-24T09:12:03;8.90;;;4.40;;
4508;SDS011;2267;48.816;9.230;2022-12-24T09:14:31;7.47;;;5.30;;
4508;SDS011;2267;48.816;9.230;2022-12-24T09:16:57;8.63;;;4.13;;
4508;SDS011;2267;48.816;9.230;2022-12-24T09:19:25;9.77;;;4.87;;
4508;SDS011;2267;48.816;9.230;2022-12-24T09:21:52;9.60;;;4.57;;
4508;SDS011;2267;48.816;9.230;2022-12-24T09:24:20;6.17;;;4.30;;
4508;SDS011;2267;48.816;9.230;2022-12-24T09:26:47;8.33;;;4.80;;
4508;SDS011;2267;48.816;9.230;2022-12-24T09:29:22;7.03;;;4.10;;
4508;SDS011;2267;48.816;9.230;2022-12-24T09:31:49;10.00;;;4.33;;
4508;SDS011;2267;48.816;9.230;2022-12-24T09:34:16;8.93;;;4.07;;
4508;SDS011;2267;48.816;9.230;2022-12-24T09:36:42;9.53;;;4.97;;
4508;SDS011;2267;48.816;9.230;2022-12-24T09:39:09;7.83;;;4.50;;
4508;SDS011;2267;48.816;9.230;2022-12-24T09:44:35;8.80;;;4.50;;
4508;SDS011;2267;48.816;9.230;2022-12-24T09:47:17;8.97;;;3.80;;
4508;SDS011;2267;48.816;9.230;2022-12-24T09:49:48;7.60;;;3.37;;
4508;SDS011;2267;48.816;9.230;2022-12-24T09:52:22;9.50;;;4.43;;
4508;SDS011;2267;48.816;9.230;2022-12-24T09:54:57;6.23;;;3.73;;
4508;SDS011;2267;48.816;9.230;2022-12-24T09:57:36;6.00;;;3.87;;
4508;SDS011;2267;48.816;9.230;2022-12-24T10:00:15;8.97;;;3.80;;
4508;SDS011;2267;48.816;9.230;2022-12-24T10:02:53;8.60;;;4.13;;
4508;SDS011;2267;48.816;9.230;2022-12-24T10:05:33;8.77;;;3.80;;
4508;SDS011;2267;48.816;9.230;2022-12-24T10:11:09;6.20;;;3.47;;
4508;SDS011;2267;48.816;9.230;2022-12-24T10:16:17;9.63;;;4.70;;
4508;SDS011;2267;48.816;9.230;2022-12-24T10:24:37;7.30;;;3.17;;
4508;SDS011;2267;48.816;9.230;2022-12-24T10:27:16;8.73;;;3.60;;
4508;SDS011;2267;48.816;9.230;2022-12-24T10:29:48;8.33;;;3.23;;
4508;SDS011;2267;48.816;9.230;2022-12-24T10:32:24;5.10;;;3.17;;
4508;SDS011;2267;48.816;9.230;2022-12-24T10:34:58;6.37;;;3.03;;
4508;SDS011;2267;48.816;9.230;2022-12-24T10:37:27;9.50;;;3.40;;
4508;SDS011;2267;48.816;9.230;2022-12-24T10:39:55;7.30;;;3.40;;
4508;SDS011;2267;48.816;9.230;2022-12-24T10:42:25;8.87;;;4.60;;
4508;SDS011;2267;48.816;9.230;2022-12-24T10:45:04;7.53;;;3.70;;
4508;SDS011;2267;48.816;9.230;2022-12-24T10:47:33;7.77;;;3.63;;
4508;SDS011;2267;48.816;9.230;2022-12-24T10:50:38;7.10;;;3.60;;
4508;SDS011;2267;48.816;9.230;2022-12-24T10:53:22;6.90;;;3.60;;
4508;SDS011;2267;48.816;9.230;2022-12-24T10:56:00;6.40;;;3.80;;
4508;SDS011;2267;48.816;9.230;2022-12-24T10:58:32;7.23;;;4.40;;
4508;SDS011;2267;48.816;9.230;2022-12-24T11:01:00;7.23;;;3.50;;
4508;SDS011;2267;48.816;9.230;2022-12-24T11:03:34;7.20;;;3.57;;
4508;SDS011;2267;48.816;9.230;2022-12-24T11:06:04;6.43;;;4.37;;
4508;SDS011;2267;48.816;9.230;2022-12-24T11:08:32;6.57;;;3.73;;
4508;SDS011;2267;48.816;9.230;2022-12-24T11:11:01;10.43;;;4.07;;
4508;SDS011;2267;48.816;9.230;2022-12-24T11:19:01;8.37;;;5.20;;
4508;SDS011;2267;48.816;9.230;2022-12-24T11:24:05;9.53;;;3.87;;
4508;SDS011;2267;48.816;9.230;2022-12-24T11:26:49;8.27;;;3.90;;
4508;SDS011;2267;48.816;9.230;2022-12-24T11:31:47;8.63;;;4.87;;
4508;SDS011;2267;48.816;9.230;2022-12-24T11:34:22;9.83;;;4.90;;
4508;SDS011;2267;48.816;9.230;2022-12-24T11:37:13;8.70;;;5.20;;
4508;SDS011;2267;48.816;9.230;2022-12-24T11:39:44;7.07;;;3.70;;
4508;SDS011;2267;48.816;9.230;2022-12-24T11:42:24;8.87;;;4.13;;
4508;SDS011;2267;48.816;9.230;2022-12-24T11:44:51;10.77;;;5.27;;
4508;SDS011;2267;48.816;9.230;2022-12-24T11:47:31;9.50;;;4.80;;
4508;SDS011;2267;48.816;9.230;2022-12-24T11:52:59;8.43;;;4.10;;
4508;SDS011;2267;48.816;9.230;2022-12-24T11:55:40;9.17;;;4.40;;
4508;SDS011;2267;48.816;9.230;2022-12-24T12:03:29;9.73;;;4.57;;
4508;SDS011;2267;48.816;9.230;2022-12-24T12:06:02;7.80;;;4.63;;
4508;SDS011;2267;48.816;9.230;2022-12-24T12:08:35;8.93;;;4.47;;
4508;SDS011;2267;48.816;9.230;2022-12-24T12:11:07;10.43;;;4.77;;
4508;SDS011;2267;48.816;9.230;2022-12-24T12:13:37;7.20;;;5.07;;
4508;SDS011;2267;48.816;9.230;2022-12-24T12:16:25;7.23;;;4.30;;
4508;SDS011;2267;48.816;9.230;2022-12-24T12:19:02;8.50;;;5.13;;
4508;SDS011;2267;48.816;9.230;2022-12-24T12:21:41;9.70;;;4.67;;
4508;SDS011;2267;48.816;9.230;2022-12-24T12:24:12;8.17;;;4.67;;
4508;SDS011;2267;48.816;9.230;2022-12-24T12:26:53;8.13;;;5.33;;
4508;SDS011;2267;48.816;9.230;2022-12-24T12:29:30;9.90;;;5.00;;
4508;SDS011;2267;48.816;9.230;2022-12-24T12:32:03;8.13;;;4.73;;
4508;SDS011;2267;48.816;9.230;2022-12-24T12:34:41;10.30;;;4.90;;
4508;SDS011;2267;48.816;9.230;2022-12-24T12:37:13;6.50;;;4.17;;
4508;SDS011;2267;48.816;9.230;2022-12-24T12:39:45;8.37;;;5.03;;
4508;SDS011;2267;48.816;9.230;2022-12-24T12:42:31;10.10;;;4.80;;
4508;SDS011;2267;48.816;9.230;2022-12-24T12:51:08;10.00;;;5.47;;
4508;SDS011;2267;48.816;9.230;2022-12-24T12:58:56;11.17;;;4.40;;
4508;SDS011;2267;48.816;9.230;2022-12-24T13:01:39;14.00;;;6.00;;
4508;SDS011;2267;48.816;9.230;2022-12-24T13:04:35;9.03;;;5.40;;
4508;SDS011;2267;48.816;9.230;2022-12-24T13:13:27;8.30;;;4.10;;
4508;SDS011;2267;48.816;9.230;2022-12-24T13:16:11;9.90;;;5.13;;
4508;SDS011;2267;48.816;9.230;2022-12-24T13:21:22;8.47;;;4.50;;
4508;SDS011;2267;48.816;9.230;2022-12-24T13:24:02;8.77;;;4.87;;
4508;SDS011;2267;48.816;9.230;2022-12-24T13:26:39;8.70;;;4.73;;
4508;SDS011;2267;48.816;9.230;2022-12-24T13:34:47;12.03;;;4.60;;
4508;SDS011;2267;48.816;9.230;2022-12-24T13:40:01;9.30;;;4.43;;
4508;SDS011;2267;48.816;9.230;2022-12-24T13:47:56;8.80;;;4.90;;
4508;SDS011;2267;48.816;9.230;2022-12-24T13:50:37;9.30;;;4.67;;
4508;SDS011;2267;48.816;9.230;2022-12-24T13:53:05;7.90;;;3.97;;
4508;SDS011;2267;48.816;9.230;2022-12-24T13:55:52;9.90;;;4.97;;
4508;SDS011;2267;48.816;9.230;2022-12-24T13:58:22;8.90;;;5.20;;
4508;SDS011;2267;48.816;9.230;2022-12-24T14:00:52;12.60;;;5.20;;
4508;SDS011;2267;48.816;9.230;2022-12-24T14:03:22;10.43;;;5.97;;
4508;SDS011;2267;48.816;9.230;2022-12-24T14:05:58;10.63;;;4.97;;
4508;SDS011;2267;48.816;9.230;2022-12-24T14:08:38;8.53;;;4.60;;
4508;SDS011;2267;48.816;9.230;2022-12-24T14:11:13;11.30;;;5.40;;
4508;SDS011;2267;48.816;9.230;2022-12-24T14:21:28;7.77;;;5.03;;
4508;SDS011;2267;48.816;9.230;2022-12-24T14:24:02;15.30;;;5.60;;
4508;SDS011;2267;48.816;9.230;2022-12-24T14:26:43;13.10;;;7.53;;
4508;SDS011;2267;48.816;9.230;2022-12-24T14:29:29;10.90;;;6.37;;
4508;SDS011;2267;48.816;9.230;2022-12-24T14:31:59;10.53;;;6.13;;
4508;SDS011;2267;48.816;9.230;2022-12-24T14:34:30;11.87;;;6.87;;
4508;SDS011;2267;48.816;9.230;2022-12-24T14:36:57;11.77;;;6.07;;
4508;SDS011;2267;48.816;9.230;2022-12-24T14:39:29;14.27;;;6.47;;
4508;SDS011;2267;48.816;9.230;2022-12-24T14:55:45;12.80;;;6.10;;
4508;SDS011;2267;48.816;9.230;2022-12-24T14:58:16;12.10;;;6.40;;
4508;SDS011;2267;48.816;9.230;2022-12-24T15:00:58;9.53;;;6.63;;
4508;SDS011;2267;48.816;9.230;2022-12-24T15:03:28;13.20;;;5.77;;
4508;SDS011;2267;48.816;9.230;2022-12-24T15:06:03;9.03;;;5.40;;
4508;SDS011;2267;48.816;9.230;2022-12-24T15:08:39;13.03;;;6.70;;
4508;SDS011;2267;48.816;9.230;2022-12-24T15:11:18;9.30;;;5.77;;
4508;SDS011;2267;48.816;9.230;2022-12-24T15:13:54;13.10;;;6.27;;
4508;SDS011;2267;48.816;9.230;2022-12-24T15:16:25;9.90;;;6.10;;
4508;SDS011;2267;48.816;9.230;2022-12-24T15:18:58;11.73;;;6.67;;
4508;SDS011;2267;48.816;9.230;2022-12-24T15:21:33;9.27;;;6.50;;
4508;SDS011;2267;48.816;9.230;2022-12-24T15:26:51;14.70;;;11.30;;
4508;SDS011;2267;48.816;9.230;2022-12-24T15:29:20;15.40;;;12.07;;
4508;SDS011;2267;48.816;9.230;2022-12-24T15:31:53;16.10;;;9.93;;
4508;SDS011;2267;48.816;9.230;2022-12-24T15:37:03;11.63;;;6.87;;
4508;SDS011;2267;48.816;9.230;2022-12-24T15:39:30;16.83;;;8.63;;
4508;SDS011;2267;48.816;9.230;2022-12-24T15:41:57;12.70;;;7.43;;
4508;SDS011;2267;48.816;9.230;2022-12-24T15:44:40;12.33;;;6.73;;
4508;SDS011;2267;48.816;9.230;2022-12-24T15:47:23;14.80;;;7.53;;
4508;SDS011;2267;48.816;9.230;2022-12-24T15:50:08;14.00;;;7.87;;
4508;SDS011;2267;48.816;9.230;2022-12-24T15:52:50;10.77;;;7.30;;
4508;SDS011;2267;48.816;9.230;2022-12-24T15:58:13;10.90;;;7.00;;
4508;SDS011;2267;48.816;9.230;2022-12-24T16:03:35;13.57;;;8.27;;
4508;SDS011;2267;48.816;9.230;2022-12-24T16:06:04;11.30;;;7.93;;
4508;SDS011;2267;48.816;9.230;2022-12-24T16:08:33;12.90;;;8.30;;
4508;SDS011;2267;48.816;9.230;2022-12-24T16:13:37;14.10;;;8.83;;
4508;SDS011;2267;48.816;9.230;2022-12-24T16:16:13;15.47;;;9.87;;
4508;SDS011;2267;48.816;9.230;2022-12-24T16:21:39;18.67;;;8.77;;
4508;SDS011;2267;48.816;9.230;2022-12-24T16:24:16;10.90;;;8.57;;
4508;SDS011;2267;48.816;9.230;2022-12-24T16:26:49;13.43;;;8.40;;
4508;SDS011;2267;48.816;9.230;2022-12-24T16:29:16;17.80;;;9.60;;
4508;SDS011;2267;48.816;9.230;2022-12-24T16:31:51;16.80;;;10.17;;
4508;SDS011;2267;48.816;9.230;2022-12-24T16:34:24;14.07;;;10.40;;
4508;SDS011;2267;48.816;9.230;2022-12-24T16:36:53;14.40;;;9.93;;
4508;SDS011;2267;48.816;9.230;2022-12-24T16:39:25;14.07;;;9.27;;
4508;SDS011;2267;48.816;9.230;2022-12-24T16:41:57;11.43;;;8.60;;
4508;SDS011;2267;48.816;9.230;2022-12-24T16:45:03;16.33;;;10.60;;
4508;SDS011;2267;48.816;9.230;2022-12-24T16:47:31;17.13;;;11.00;;
4508;SDS011;2267;48.816;9.230;2022-12-24T16:50:12;16.47;;;11.43;;
4508;SDS011;2267;48.816;9.230;2022-12-24T16:52:40;15.27;;;11.07;;
4508;SDS011;2267;48.816;9.230;2022-12-24T16:55:08;15.97;;;10.70;;
4508;SDS011;2267;48.816;9.230;2022-12-24T16:57:38;12.77;;;10.90;;
4508;SDS011;2267;48.816;9.230;2022-12-24T17:00:07;14.30;;;11.30;;
4508;SDS011;2267;48.816;9.230;2022-12-24T17:02:39;20.97;;;11.83;;
4508;SDS011;2267;48.816;9.230;2022-12-24T17:05:06;16.70;;;11.10;;
4508;SDS011;2267;48.816;9.230;2022-12-24T17:07:33;14.67;;;12.27;;
4508;SDS011;2267;48.816;9.230;2022-12-24T17:10:08;13.73;;;11.57;;
4508;SDS011;2267;48.816;9.230;2022-12-24T17:12:36;14.73;;;11.60;;
4508;SDS011;2267;48.816;9.230;2022-12-24T17:15:03;15.90;;;10.93;;
4508;SDS011;2267;48.816;9.230;2022-12-24T17:17:30;14.47;;;10.90;;
4508;SDS011;2267;48.816;9.230;2022-12-24T17:19:57;15.70;;;10.97;;
4508;SDS011;2267;48.816;9.230;2022-12-24T17:22:24;15.00;;;10.73;;
4508;SDS011;2267;48.816;9.230;2022-12-24T17:24:53;15.43;;;11.50;;
4508;SDS011;2267;48.816;9.230;2022-12-24T17:27:20;13.20;;;9.87;;
4508;SDS011;2267;48.816;9.230;2022-12-24T17:29:48;11.70;;;10.23;;
4508;SDS011;2267;48.816;9.230;2022-12-24T17:32:15;16.10;;;10.87;;
4508;SDS011;2267;48.816;9.230;2022-12-24T17:34:42;16.00;;;11.70;;